sensor_id;sensor_type;location;lat;lon;timestamp;temperature;humidity
57026;DHT22;43961;52.940;6.834;2023-02-18T00:02:07;6.50;99.90
57026;DHT22;43961;52.940;6.834;2023-02-18T00:04:32;6.60;99.90
57026;DHT22;43961;52.940;6.834;2023-02-18T00:06:58;6.60;99.90
57026;DHT22;43961;52.940;6.834;2023-02-18T00:09:24;6.60;99.90
57026;DHT22;43961;52.940;6.834;2023-02-18T00:11:51;6.60;99.90
57026;DHT22;43961;52.940;6.834;2023-02-18T00:14:17;6.70;99.90
57026;DHT22;43961;52.940;6.834;2023-02-18T00:16:43;6.70;99.90
57026;DHT22;43961;52.940;6.834;2023-02-18T00:19:13;6.70;99.90
57026;DHT22;43961;52.940;6.834;2023-02-18T00:21:39;6.70;99.90
57026;DHT22;43961;52.940;6.834;2023-02-18T00:24:06;6.70;99.90
57026;DHT22;43961;52.940;6.834;2023-02-18T00:26:33;6.70;99.90
57026;DHT22;43961;52.940;6.834;2023-02-18T00:28:59;6.70;99.90
57026;DHT22;43961;52.940;6.834;2023-02-18T00:31:34;6.70;99.90
57026;DHT22;43961;52.940;6.834;2023-02-18T00:34:03;6.70;99.90
57026;DHT22;43961;52.940;6.834;2023-02-18T00:36:29;6.80;99.90
57026;DHT22;43961;52.940;6.834;2023-02-18T00:38:57;6.70;99.90
57026;DHT22;43961;52.940;6.834;2023-02-18T00:41:25;6.80;99.90
57026;DHT22;43961;52.940;6.834;2023-02-18T00:43:51;6.70;99.90
57026;DHT22;43961;52.940;6.834;2023-02-18T00:46:17;6.70;99.90
57026;DHT22;43961;52.940;6.834;2023-02-18T00:48:44;6.70;99.90
57026;DHT22;43961;52.940;6.834;2023-02-18T00:51:11;6.70;99.90
57026;DHT22;43961;52.940;6.834;2023-02-18T00:53:37;6.70;99.90
57026;DHT22;43961;52.940;6.834;2023-02-18T00:56:03;6.80;99.90
57026;DHT22;43961;52.940;6.834;2023-02-18T00:58:29;6.80;99.90
57026;DHT22;43961;52.940;6.834;2023-02-18T01:00:55;6.80;99.90
57026;DHT22;43961;52.940;6.834;2023-02-18T01:03:21;6.80;99.90
57026;DHT22;43961;52.940;6.834;2023-02-18T01:05:48;6.80;99.90
57026;DHT22;43961;52.940;6.834;2023-02-18T01:08:16;6.80;99.90
57026;DHT22;43961;52.940;6.834;2023-02-18T01:10:44;6.80;99.90
57026;DHT22;43961;52.940;6.834;2023-02-18T01:13:11;6.70;99.90
57026;DHT22;43961;52.940;6.834;2023-02-18T01:15:38;6.70;99.90
57026;DHT22;43961;52.940;6.834;2023-02-18T01:18:05;6.80;99.90
57026;DHT22;43961;52.940;6.834;2023-02-18T01:20:35;6.80;99.90
57026;DHT22;43961;52.940;6.834;2023-02-18T01:23:01;6.80;99.90
57026;DHT22;43961;52.940;6.834;2023-02-18T01:25:28;6.80;99.90
57026;DHT22;43961;52.940;6.834;2023-02-18T01:27:54;6.80;99.90
57026;DHT22;43961;52.940;6.834;2023-02-18T01:30:20;6.80;99.90
57026;DHT22;43961;52.940;6.834;2023-02-18T01:32:46;6.80;99.90
57026;DHT22;43961;52.940;6.834;2023-02-18T01:35:15;6.80;99.90
57026;DHT22;43961;52.940;6.834;2023-02-18T01:37:41;6.80;99.90
57026;DHT22;43961;52.940;6.834;2023-02-18T01:40:10;6.90;99.90
57026;DHT22;43961;52.940;6.834;2023-02-18T01:42:36;6.90;99.90
57026;DHT22;43961;52.940;6.834;2023-02-18T01:48:29;7.00;99.90
57026;DHT22;43961;52.940;6.834;2023-02-18T01:51:09;7.00;99.90
57026;DHT22;43961;52.940;6.834;2023-02-18T01:56:18;7.00;99.90
57026;DHT22;43961;52.940;6.834;2023-02-18T01:58:45;7.10;99.90
57026;DHT22;43961;52.940;6.834;2023-02-18T02:01:11;7.00;99.90
57026;DHT22;43961;52.940;6.834;2023-02-18T02:03:36;7.10;99.90
57026;DHT22;43961;52.940;6.834;2023-02-18T02:06:08;7.10;99.90
57026;DHT22;43961;52.940;6.834;2023-02-18T02:08:37;7.10;99.90
57026;DHT22;43961;52.940;6.834;2023-02-18T02:37:37;7.50;99.90
57026;DHT22;43961;52.940;6.834;2023-02-18T02:48:20;7.60;99.90
57026;DHT22;43961;52.940;6.834;2023-02-18T02:50:57;7.60;99.90
57026;DHT22;43961;52.940;6.834;2023-02-18T02:53:29;7.70;99.90
57026;DHT22;43961;52.940;6.834;2023-02-18T02:55:55;7.70;99.90
57026;DHT22;43961;52.940;6.834;2023-02-18T02:58:22;7.70;99.90
57026;DHT22;43961;52.940;6.834;2023-02-18T03:01:12;7.80;99.90
57026;DHT22;43961;52.940;6.834;2023-02-18T03:04:09;7.70;99.90
57026;DHT22;43961;52.940;6.834;2023-02-18T03:09:41;7.80;99.90
57026;DHT22;43961;52.940;6.834;2023-02-18T03:18:00;7.90;99.90
57026;DHT22;43961;52.940;6.834;2023-02-18T03:20:33;7.90;99.90
57026;DHT22;43961;52.940;6.834;2023-02-18T03:23:02;7.90;99.90
57026;DHT22;43961;52.940;6.834;2023-02-18T03:25:30;7.90;99.90
57026;DHT22;43961;52.940;6.834;2023-02-18T03:27:59;7.90;99.90
57026;DHT22;43961;52.940;6.834;2023-02-18T03:30:34;7.90;99.90
57026;DHT22;43961;52.940;6.834;2023-02-18T03:33:07;8.00;99.90
57026;DHT22;43961;52.940;6.834;2023-02-18T03:35:35;8.00;99.90
57026;DHT22;43961;52.940;6.834;2023-02-18T03:38:13;8.00;99.90
57026;DHT22;43961;52.940;6.834;2023-02-18T03:40:40;8.00;99.90
57026;DHT22;43961;52.940;6.834;2023-02-18T03:43:06;8.00;99.90
57026;DHT22;43961;52.940;6.834;2023-02-18T03:45:33;8.00;99.90
57026;DHT22;43961;52.940;6.834;2023-02-18T03:48:00;8.10;99.90
57026;DHT22;43961;52.940;6.834;2023-02-18T03:50:25;8.10;99.90
57026;DHT22;43961;52.940;6.834;2023-02-18T03:52:51;8.10;99.90
57026;DHT22;43961;52.940;6.834;2023-02-18T03:55:17;8.10;99.90
57026;DHT22;43961;52.940;6.834;2023-02-18T03:57:42;8.10;99.90
57026;DHT22;43961;52.940;6.834;2023-02-18T04:00:09;8.20;99.90
57026;DHT22;43961;52.940;6.834;2023-02-18T04:02:36;8.20;99.90
57026;DHT22;43961;52.940;6.834;2023-02-18T04:05:01;8.20;99.90
57026;DHT22;43961;52.940;6.834;2023-02-18T04:07:27;8.20;99.90
57026;DHT22;43961;52.940;6.834;2023-02-18T04:09:53;8.20;99.90
57026;DHT22;43961;52.940;6.834;2023-02-18T04:12:18;8.30;99.90
57026;DHT22;43961;52.940;6.834;2023-02-18T04:14:44;8.30;99.90
57026;DHT22;43961;52.940;6.834;2023-02-18T04:17:10;8.30;99.90
57026;DHT22;43961;52.940;6.834;2023-02-18T04:19:35;8.30;99.90
57026;DHT22;43961;52.940;6.834;2023-02-18T04:22:02;8.40;99.90
57026;DHT22;43961;52.940;6.834;2023-02-18T04:24:27;8.40;99.90
57026;DHT22;43961;52.940;6.834;2023-02-18T04:26:53;8.50;99.90
57026;DHT22;43961;52.940;6.834;2023-02-18T04:29:19;8.40;99.90
57026;DHT22;43961;52.940;6.834;2023-02-18T04:31:44;8.40;99.90
57026;DHT22;43961;52.940;6.834;2023-02-18T04:34:10;8.50;99.90
57026;DHT22;43961;52.940;6.834;2023-02-18T04:36:36;8.50;99.90
57026;DHT22;43961;52.940;6.834;2023-02-18T04:39:02;8.50;99.90
57026;DHT22;43961;52.940;6.834;2023-02-18T04:41:29;8.50;99.90
57026;DHT22;43961;52.940;6.834;2023-02-18T04:43:54;8.50;99.90
57026;DHT22;43961;52.940;6.834;2023-02-18T04:46:22;8.60;99.90
57026;DHT22;43961;52.940;6.834;2023-02-18T04:48:48;8.50;99.90
57026;DHT22;43961;52.940;6.834;2023-02-18T04:51:14;8.60;99.90
57026;DHT22;43961;52.940;6.834;2023-02-18T04:53:39;8.60;99.90
57026;DHT22;43961;52.940;6.834;2023-02-18T04:56:05;8.60;99.90
57026;DHT22;43961;52.940;6.834;2023-02-18T04:58:31;8.60;99.90
57026;DHT22;43961;52.940;6.834;2023-02-18T05:01:01;8.70;99.90
57026;DHT22;43961;52.940;6.834;2023-02-18T05:03:27;8.60;99.90
57026;DHT22;43961;52.940;6.834;2023-02-18T05:05:53;8.70;99.90
57026;DHT22;43961;52.940;6.834;2023-02-18T05:08:20;8.70;99.90
57026;DHT22;43961;52.940;6.834;2023-02-18T05:10:46;8.70;99.90
57026;DHT22;43961;52.940;6.834;2023-02-18T05:13:12;8.70;99.90
57026;DHT22;43961;52.940;6.834;2023-02-18T05:15:37;8.70;99.90
57026;DHT22;43961;52.940;6.834;2023-02-18T05:18:04;8.70;99.90
57026;DHT22;43961;52.940;6.834;2023-02-18T05:20:30;8.70;99.90
57026;DHT22;43961;52.940;6.834;2023-02-18T05:22:55;8.70;99.90
57026;DHT22;43961;52.940;6.834;2023-02-18T05:25:21;8.70;99.90
57026;DHT22;43961;52.940;6.834;2023-02-18T05:27:47;8.60;99.90
57026;DHT22;43961;52.940;6.834;2023-02-18T05:30:13;8.60;99.90
57026;DHT22;43961;52.940;6.834;2023-02-18T05:32:39;8.60;99.90
57026;DHT22;43961;52.940;6.834;2023-02-18T05:35:04;8.60;99.90
57026;DHT22;43961;52.940;6.834;2023-02-18T05:37:30;8.70;99.90
57026;DHT22;43961;52.940;6.834;2023-02-18T05:39:56;8.70;99.90
57026;DHT22;43961;52.940;6.834;2023-02-18T05:42:22;8.60;99.90
57026;DHT22;43961;52.940;6.834;2023-02-18T05:44:48;8.70;99.90
57026;DHT22;43961;52.940;6.834;2023-02-18T05:47:14;8.70;99.90
57026;DHT22;43961;52.940;6.834;2023-02-18T05:49:41;8.70;99.90
57026;DHT22;43961;52.940;6.834;2023-02-18T05:52:08;8.70;99.90
57026;DHT22;43961;52.940;6.834;2023-02-18T05:54:35;8.70;99.90
57026;DHT22;43961;52.940;6.834;2023-02-18T05:57:01;8.70;99.90
57026;DHT22;43961;52.940;6.834;2023-02-18T05:59:27;8.70;99.90
57026;DHT22;43961;52.940;6.834;2023-02-18T06:01:53;8.70;99.90
57026;DHT22;43961;52.940;6.834;2023-02-18T06:04:19;8.70;99.90
57026;DHT22;43961;52.940;6.834;2023-02-18T06:06:45;8.80;99.90
57026;DHT22;43961;52.940;6.834;2023-02-18T06:09:12;8.80;99.90
57026;DHT22;43961;52.940;6.834;2023-02-18T06:11:38;8.80;99.90
57026;DHT22;43961;52.940;6.834;2023-02-18T06:14:04;8.90;99.90
57026;DHT22;43961;52.940;6.834;2023-02-18T06:16:30;8.90;99.90
57026;DHT22;43961;52.940;6.834;2023-02-18T06:18:56;8.90;99.90
57026;DHT22;43961;52.940;6.834;2023-02-18T06:21:21;8.90;99.90
57026;DHT22;43961;52.940;6.834;2023-02-18T06:23:47;9.00;99.90
57026;DHT22;43961;52.940;6.834;2023-02-18T06:26:13;8.90;99.90
57026;DHT22;43961;52.940;6.834;2023-02-18T06:28:39;9.00;99.90
57026;DHT22;43961;52.940;6.834;2023-02-18T06:31:05;9.00;99.90
57026;DHT22;43961;52.940;6.834;2023-02-18T06:33:31;9.00;99.90
57026;DHT22;43961;52.940;6.834;2023-02-18T06:36:05;9.00;99.90
57026;DHT22;43961;52.940;6.834;2023-02-18T06:38:34;9.10;99.90
57026;DHT22;43961;52.940;6.834;2023-02-18T06:41:00;9.10;99.90
57026;DHT22;43961;52.940;6.834;2023-02-18T06:43:26;9.00;99.90
57026;DHT22;43961;52.940;6.834;2023-02-18T06:45:52;9.00;99.90
57026;DHT22;43961;52.940;6.834;2023-02-18T06:48:17;9.10;99.90
57026;DHT22;43961;52.940;6.834;2023-02-18T06:50:43;9.20;99.90
57026;DHT22;43961;52.940;6.834;2023-02-18T06:53:09;9.10;99.90
57026;DHT22;43961;52.940;6.834;2023-02-18T06:55:35;9.10;99.90
57026;DHT22;43961;52.940;6.834;2023-02-18T06:58:02;9.20;99.90
57026;DHT22;43961;52.940;6.834;2023-02-18T07:00:28;9.20;99.90
57026;DHT22;43961;52.940;6.834;2023-02-18T07:02:53;9.20;99.90
57026;DHT22;43961;52.940;6.834;2023-02-18T07:05:19;9.20;99.90
57026;DHT22;43961;52.940;6.834;2023-02-18T07:07:45;9.30;99.90
57026;DHT22;43961;52.940;6.834;2023-02-18T07:10:11;9.30;99.90
57026;DHT22;43961;52.940;6.834;2023-02-18T07:12:36;9.30;99.90
57026;DHT22;43961;52.940;6.834;2023-02-18T07:15:03;9.30;99.90
57026;DHT22;43961;52.940;6.834;2023-02-18T07:17:30;9.30;99.90
57026;DHT22;43961;52.940;6.834;2023-02-18T07:19:56;9.40;99.90
57026;DHT22;43961;52.940;6.834;2023-02-18T07:22:25;9.40;99.90
57026;DHT22;43961;52.940;6.834;2023-02-18T07:24:52;9.40;99.90
57026;DHT22;43961;52.940;6.834;2023-02-18T07:27:19;9.30;99.90
57026;DHT22;43961;52.940;6.834;2023-02-18T07:29:44;9.40;99.90
57026;DHT22;43961;52.940;6.834;2023-02-18T07:32:12;9.40;99.90
57026;DHT22;43961;52.940;6.834;2023-02-18T07:34:38;9.50;99.90
57026;DHT22;43961;52.940;6.834;2023-02-18T07:37:03;9.50;99.90
57026;DHT22;43961;52.940;6.834;2023-02-18T07:39:34;9.50;99.90
57026;DHT22;43961;52.940;6.834;2023-02-18T07:42:07;9.50;99.90
57026;DHT22;43961;52.940;6.834;2023-02-18T07:44:32;9.60;99.90
57026;DHT22;43961;52.940;6.834;2023-02-18T07:46:58;9.60;99.90
57026;DHT22;43961;52.940;6.834;2023-02-18T07:49:24;9.60;99.90
57026;DHT22;43961;52.940;6.834;2023-02-18T07:51:50;9.60;99.90
57026;DHT22;43961;52.940;6.834;2023-02-18T07:54:16;9.50;99.90
57026;DHT22;43961;52.940;6.834;2023-02-18T07:56:42;9.60;99.90
57026;DHT22;43961;52.940;6.834;2023-02-18T07:59:08;9.50;99.90
57026;DHT22;43961;52.940;6.834;2023-02-18T08:01:34;9.60;99.90
57026;DHT22;43961;52.940;6.834;2023-02-18T08:04:00;9.60;99.90
57026;DHT22;43961;52.940;6.834;2023-02-18T08:06:34;9.60;99.90
57026;DHT22;43961;52.940;6.834;2023-02-18T08:09:02;9.60;99.90
57026;DHT22;43961;52.940;6.834;2023-02-18T08:11:27;9.70;99.90
57026;DHT22;43961;52.940;6.834;2023-02-18T08:13:53;9.60;99.90
57026;DHT22;43961;52.940;6.834;2023-02-18T08:16:20;9.70;99.90
57026;DHT22;43961;52.940;6.834;2023-02-18T08:18:46;9.70;99.90
57026;DHT22;43961;52.940;6.834;2023-02-18T08:21:13;9.60;99.90
57026;DHT22;43961;52.940;6.834;2023-02-18T08:23:39;9.70;99.90
57026;DHT22;43961;52.940;6.834;2023-02-18T08:26:05;9.70;99.90
57026;DHT22;43961;52.940;6.834;2023-02-18T08:28:31;9.60;99.90
57026;DHT22;43961;52.940;6.834;2023-02-18T08:30:57;9.70;99.90
57026;DHT22;43961;52.940;6.834;2023-02-18T08:33:23;9.70;99.90
57026;DHT22;43961;52.940;6.834;2023-02-18T08:35:51;9.70;99.90
57026;DHT22;43961;52.940;6.834;2023-02-18T08:38:17;9.70;99.90
57026;DHT22;43961;52.940;6.834;2023-02-18T08:40:44;9.70;99.90
57026;DHT22;43961;52.940;6.834;2023-02-18T08:43:10;9.70;99.90
57026;DHT22;43961;52.940;6.834;2023-02-18T08:45:37;9.70;99.90
57026;DHT22;43961;52.940;6.834;2023-02-18T08:48:04;9.70;99.90
57026;DHT22;43961;52.940;6.834;2023-02-18T08:50:30;9.70;99.90
57026;DHT22;43961;52.940;6.834;2023-02-18T08:52:56;9.70;99.90
57026;DHT22;43961;52.940;6.834;2023-02-18T08:55:25;9.70;99.90
57026;DHT22;43961;52.940;6.834;2023-02-18T08:57:52;9.70;99.90
57026;DHT22;43961;52.940;6.834;2023-02-18T09:00:18;9.70;99.90
57026;DHT22;43961;52.940;6.834;2023-02-18T09:02:44;9.70;99.90
57026;DHT22;43961;52.940;6.834;2023-02-18T09:05:11;9.70;99.90
57026;DHT22;43961;52.940;6.834;2023-02-18T09:07:37;9.80;99.90
57026;DHT22;43961;52.940;6.834;2023-02-18T09:10:03;9.70;99.90
57026;DHT22;43961;52.940;6.834;2023-02-18T09:12:29;9.80;99.90
57026;DHT22;43961;52.940;6.834;2023-02-18T09:14:54;9.70;99.90
57026;DHT22;43961;52.940;6.834;2023-02-18T09:17:20;9.70;99.90
57026;DHT22;43961;52.940;6.834;2023-02-18T09:19:46;9.70;99.90
57026;DHT22;43961;52.940;6.834;2023-02-18T09:22:12;9.80;99.90
57026;DHT22;43961;52.940;6.834;2023-02-18T09:24:39;9.70;99.90
57026;DHT22;43961;52.940;6.834;2023-02-18T09:27:05;9.80;99.90
57026;DHT22;43961;52.940;6.834;2023-02-18T09:29:31;9.80;99.90
57026;DHT22;43961;52.940;6.834;2023-02-18T09:32:01;9.80;99.90
57026;DHT22;43961;52.940;6.834;2023-02-18T09:34:27;9.70;99.90
57026;DHT22;43961;52.940;6.834;2023-02-18T09:36:53;9.70;99.90
57026;DHT22;43961;52.940;6.834;2023-02-18T09:39:19;9.70;99.90
57026;DHT22;43961;52.940;6.834;2023-02-18T09:41:47;9.70;99.90
57026;DHT22;43961;52.940;6.834;2023-02-18T09:44:24;9.70;99.90
57026;DHT22;43961;52.940;6.834;2023-02-18T09:49:20;9.60;99.90
57026;DHT22;43961;52.940;6.834;2023-02-18T09:51:46;9.60;99.90
57026;DHT22;43961;52.940;6.834;2023-02-18T09:54:16;9.70;99.90
57026;DHT22;43961;52.940;6.834;2023-02-18T09:56:43;9.70;99.90
57026;DHT22;43961;52.940;6.834;2023-02-18T09:59:18;9.60;99.90
57026;DHT22;43961;52.940;6.834;2023-02-18T10:01:46;9.70;99.90
57026;DHT22;43961;52.940;6.834;2023-02-18T10:06:44;9.70;99.90
57026;DHT22;43961;52.940;6.834;2023-02-18T10:09:33;9.70;99.90
57026;DHT22;43961;52.940;6.834;2023-02-18T10:12:17;9.70;99.90
57026;DHT22;43961;52.940;6.834;2023-02-18T10:14:50;9.70;99.90
57026;DHT22;43961;52.940;6.834;2023-02-18T10:17:17;9.70;99.90
57026;DHT22;43961;52.940;6.834;2023-02-18T10:19:45;9.70;99.90
57026;DHT22;43961;52.940;6.834;2023-02-18T10:22:13;9.70;99.90
57026;DHT22;43961;52.940;6.834;2023-02-18T10:27:17;9.70;99.90
57026;DHT22;43961;52.940;6.834;2023-02-18T10:29:45;9.70;99.90
57026;DHT22;43961;52.940;6.834;2023-02-18T10:32:27;9.70;99.90
57026;DHT22;43961;52.940;6.834;2023-02-18T10:35:29;9.70;99.90
57026;DHT22;43961;52.940;6.834;2023-02-18T10:38:11;9.70;99.90
57026;DHT22;43961;52.940;6.834;2023-02-18T10:40:53;9.70;99.90
57026;DHT22;43961;52.940;6.834;2023-02-18T10:44:07;9.80;99.90
57026;DHT22;43961;52.940;6.834;2023-02-18T10:51:57;9.80;99.90
57026;DHT22;43961;52.940;6.834;2023-02-18T10:54:46;9.80;99.90
57026;DHT22;43961;52.940;6.834;2023-02-18T10:57:18;9.90;99.90
57026;DHT22;43961;52.940;6.834;2023-02-18T11:00:01;9.90;99.90
57026;DHT22;43961;52.940;6.834;2023-02-18T11:02:35;9.90;99.90
57026;DHT22;43961;52.940;6.834;2023-02-18T11:05:15;10.00;99.90
57026;DHT22;43961;52.940;6.834;2023-02-18T11:07:47;10.00;99.90
57026;DHT22;43961;52.940;6.834;2023-02-18T11:10:21;10.10;99.90
57026;DHT22;43961;52.940;6.834;2023-02-18T11:12:51;10.10;99.90
57026;DHT22;43961;52.940;6.834;2023-02-18T11:15:19;10.10;99.90
57026;DHT22;43961;52.940;6.834;2023-02-18T11:17:47;10.10;99.90
57026;DHT22;43961;52.940;6.834;2023-02-18T11:22:55;10.20;99.90
57026;DHT22;43961;52.940;6.834;2023-02-18T11:25:26;10.20;99.90
57026;DHT22;43961;52.940;6.834;2023-02-18T11:28:01;10.30;99.90
57026;DHT22;43961;52.940;6.834;2023-02-18T11:30:40;10.30;99.90
57026;DHT22;43961;52.940;6.834;2023-02-18T11:33:12;10.30;99.90
57026;DHT22;43961;52.940;6.834;2023-02-18T11:35:47;10.40;99.90
57026;DHT22;43961;52.940;6.834;2023-02-18T11:38:36;10.50;99.90
57026;DHT22;43961;52.940;6.834;2023-02-18T11:41:09;10.50;99.90
57026;DHT22;43961;52.940;6.834;2023-02-18T11:43:40;10.50;99.90
57026;DHT22;43961;52.940;6.834;2023-02-18T11:46:10;10.50;99.90
57026;DHT22;43961;52.940;6.834;2023-02-18T11:48:36;10.50;99.90
57026;DHT22;43961;52.940;6.834;2023-02-18T11:51:03;10.50;99.90
57026;DHT22;43961;52.940;6.834;2023-02-18T11:53:34;10.50;99.90
57026;DHT22;43961;52.940;6.834;2023-02-18T11:56:04;10.50;99.90
57026;DHT22;43961;52.940;6.834;2023-02-18T11:58:49;10.50;99.90
57026;DHT22;43961;52.940;6.834;2023-02-18T12:04:12;10.50;99.90
57026;DHT22;43961;52.940;6.834;2023-02-18T12:09:37;10.60;99.90
57026;DHT22;43961;52.940;6.834;2023-02-18T12:12:27;10.60;99.90
57026;DHT22;43961;52.940;6.834;2023-02-18T12:14:54;10.60;99.90
57026;DHT22;43961;52.940;6.834;2023-02-18T12:23:35;10.70;99.90
57026;DHT22;43961;52.940;6.834;2023-02-18T12:26:15;10.70;99.90
57026;DHT22;43961;52.940;6.834;2023-02-18T12:32:15;10.70;99.90
57026;DHT22;43961;52.940;6.834;2023-02-18T12:35:12;10.70;99.90
57026;DHT22;43961;52.940;6.834;2023-02-18T12:38:01;10.80;99.90
57026;DHT22;43961;52.940;6.834;2023-02-18T12:49:53;10.90;99.90
57026;DHT22;43961;52.940;6.834;2023-02-18T13:04:39;11.00;99.90
57026;DHT22;43961;52.940;6.834;2023-02-18T13:10:41;11.10;99.90
57026;DHT22;43961;52.940;6.834;2023-02-18T13:13:16;11.10;99.90
57026;DHT22;43961;52.940;6.834;2023-02-18T13:15:49;11.10;99.90
57026;DHT22;43961;52.940;6.834;2023-02-18T13:18:24;11.10;99.90
57026;DHT22;43961;52.940;6.834;2023-02-18T13:20:58;11.20;99.90
57026;DHT22;43961;52.940;6.834;2023-02-18T13:23:28;11.20;99.90
57026;DHT22;43961;52.940;6.834;2023-02-18T13:26:01;11.20;99.90
57026;DHT22;43961;52.940;6.834;2023-02-18T13:28:37;11.30;99.90
57026;DHT22;43961;52.940;6.834;2023-02-18T13:31:38;11.30;99.90
57026;DHT22;43961;52.940;6.834;2023-02-18T13:34:16;11.30;99.90
57026;DHT22;43961;52.940;6.834;2023-02-18T13:39:27;11.40;99.90
57026;DHT22;43961;52.940;6.834;2023-02-18T13:42:59;11.40;99.90
57026;DHT22;43961;52.940;6.834;2023-02-18T13:53:29;11.40;99.90
57026;DHT22;43961;52.940;6.834;2023-02-18T13:56:06;11.40;99.90
57026;DHT22;43961;52.940;6.834;2023-02-18T13:58:38;11.40;99.90
57026;DHT22;43961;52.940;6.834;2023-02-18T14:06:22;11.40;99.90
57026;DHT22;43961;52.940;6.834;2023-02-18T14:08:49;11.50;99.90
57026;DHT22;43961;52.940;6.834;2023-02-18T14:16:08;11.70;99.90
57026;DHT22;43961;52.940;6.834;2023-02-18T14:23:41;11.60;99.90
57026;DHT22;43961;52.940;6.834;2023-02-18T14:28:59;11.50;99.90
57026;DHT22;43961;52.940;6.834;2023-02-18T14:31:49;11.40;99.90
57026;DHT22;43961;52.940;6.834;2023-02-18T14:39:57;11.30;99.90
57026;DHT22;43961;52.940;6.834;2023-02-18T14:46:04;11.20;99.90
57026;DHT22;43961;52.940;6.834;2023-02-18T14:51:24;11.20;99.90
57026;DHT22;43961;52.940;6.834;2023-02-18T14:53:50;11.20;99.90
57026;DHT22;43961;52.940;6.834;2023-02-18T14:56:19;11.20;99.90
57026;DHT22;43961;52.940;6.834;2023-02-18T14:58:57;11.20;99.90
57026;DHT22;43961;52.940;6.834;2023-02-18T15:01:31;11.20;99.90
57026;DHT22;43961;52.940;6.834;2023-02-18T15:03:57;11.20;99.90
57026;DHT22;43961;52.940;6.834;2023-02-18T15:06:30;11.10;99.90
57026;DHT22;43961;52.940;6.834;2023-02-18T15:08:57;11.10;99.90
57026;DHT22;43961;52.940;6.834;2023-02-18T15:11:47;11.10;99.90
57026;DHT22;43961;52.940;6.834;2023-02-18T15:14:26;11.10;99.90
57026;DHT22;43961;52.940;6.834;2023-02-18T15:16:53;11.00;99.90
57026;DHT22;43961;52.940;6.834;2023-02-18T15:19:23;11.00;99.90
57026;DHT22;43961;52.940;6.834;2023-02-18T15:21:52;10.90;99.90
57026;DHT22;43961;52.940;6.834;2023-02-18T15:24:31;10.90;99.90
57026;DHT22;43961;52.940;6.834;2023-02-18T15:27:10;10.90;99.90
57026;DHT22;43961;52.940;6.834;2023-02-18T15:29:37;10.80;99.90
57026;DHT22;43961;52.940;6.834;2023-02-18T15:32:18;10.80;99.90
57026;DHT22;43961;52.940;6.834;2023-02-18T15:34:44;10.80;99.90
57026;DHT22;43961;52.940;6.834;2023-02-18T15:37:13;10.80;99.90
57026;DHT22;43961;52.940;6.834;2023-02-18T15:39:40;10.80;99.90
57026;DHT22;43961;52.940;6.834;2023-02-18T15:42:17;10.70;99.90
57026;DHT22;43961;52.940;6.834;2023-02-18T15:44:50;10.70;99.90
57026;DHT22;43961;52.940;6.834;2023-02-18T15:47:17;10.70;99.90
57026;DHT22;43961;52.940;6.834;2023-02-18T15:49:47;10.70;99.90
57026;DHT22;43961;52.940;6.834;2023-02-18T15:52:14;10.70;99.90
57026;DHT22;43961;52.940;6.834;2023-02-18T15:54:41;10.70;99.90
57026;DHT22;43961;52.940;6.834;2023-02-18T15:57:12;10.60;99.90
57026;DHT22;43961;52.940;6.834;2023-02-18T15:59:55;10.60;99.90
57026;DHT22;43961;52.940;6.834;2023-02-18T16:02:23;10.60;99.90
57026;DHT22;43961;52.940;6.834;2023-02-18T16:04:57;10.60;99.90
57026;DHT22;43961;52.940;6.834;2023-02-18T16:07:27;10.50;99.90
57026;DHT22;43961;52.940;6.834;2023-02-18T16:10:23;10.50;99.90
57026;DHT22;43961;52.940;6.834;2023-02-18T16:12:52;10.50;99.90
57026;DHT22;43961;52.940;6.834;2023-02-18T16:15:38;10.40;99.90
57026;DHT22;43961;52.940;6.834;2023-02-18T16:18:05;10.40;99.90
57026;DHT22;43961;52.940;6.834;2023-02-18T16:20:36;10.40;99.90
57026;DHT22;43961;52.940;6.834;2023-02-18T16:23:13;10.40;99.90
57026;DHT22;43961;52.940;6.834;2023-02-18T16:25:44;10.30;99.90
57026;DHT22;43961;52.940;6.834;2023-02-18T16:30:42;10.30;99.90
57026;DHT22;43961;52.940;6.834;2023-02-18T16:33:09;10.30;99.90
57026;DHT22;43961;52.940;6.834;2023-02-18T16:35:35;10.20;99.90
57026;DHT22;43961;52.940;6.834;2023-02-18T16:38:01;10.20;99.90
57026;DHT22;43961;52.940;6.834;2023-02-18T16:40:35;10.10;99.90
57026;DHT22;43961;52.940;6.834;2023-02-18T16:43:13;10.10;99.90
57026;DHT22;43961;52.940;6.834;2023-02-18T16:48:31;10.10;99.90
57026;DHT22;43961;52.940;6.834;2023-02-18T16:51:04;10.00;99.90
57026;DHT22;43961;52.940;6.834;2023-02-18T16:53:30;10.00;99.90
57026;DHT22;43961;52.940;6.834;2023-02-18T16:55:55;9.90;99.90
57026;DHT22;43961;52.940;6.834;2023-02-18T16:58:21;10.00;99.90
57026;DHT22;43961;52.940;6.834;2023-02-18T17:00:48;9.90;99.90
57026;DHT22;43961;52.940;6.834;2023-02-18T17:03:16;9.90;99.90
57026;DHT22;43961;52.940;6.834;2023-02-18T17:05:42;9.90;99.90
57026;DHT22;43961;52.940;6.834;2023-02-18T17:08:20;9.80;99.90
57026;DHT22;43961;52.940;6.834;2023-02-18T17:10:50;9.90;99.90
57026;DHT22;43961;52.940;6.834;2023-02-18T17:13:18;9.80;99.90
57026;DHT22;43961;52.940;6.834;2023-02-18T17:15:45;9.80;99.90
57026;DHT22;43961;52.940;6.834;2023-02-18T17:18:12;9.70;99.90
57026;DHT22;43961;52.940;6.834;2023-02-18T17:20:38;9.70;99.90
57026;DHT22;43961;52.940;6.834;2023-02-18T17:23:04;9.70;99.90
57026;DHT22;43961;52.940;6.834;2023-02-18T17:25:37;9.70;99.90
57026;DHT22;43961;52.940;6.834;2023-02-18T17:28:03;9.70;99.90
57026;DHT22;43961;52.940;6.834;2023-02-18T17:30:31;9.70;99.90
57026;DHT22;43961;52.940;6.834;2023-02-18T17:33:00;9.70;99.90
57026;DHT22;43961;52.940;6.834;2023-02-18T17:35:26;9.70;99.90
57026;DHT22;43961;52.940;6.834;2023-02-18T17:37:52;9.70;99.90
57026;DHT22;43961;52.940;6.834;2023-02-18T17:40:20;9.70;99.90
57026;DHT22;43961;52.940;6.834;2023-02-18T17:42:47;9.70;99.90
57026;DHT22;43961;52.940;6.834;2023-02-18T17:47:48;9.80;99.90
57026;DHT22;43961;52.940;6.834;2023-02-18T17:50:14;9.80;99.90
57026;DHT22;43961;52.940;6.834;2023-02-18T17:52:40;9.80;99.90
57026;DHT22;43961;52.940;6.834;2023-02-18T17:57:41;9.80;99.90
57026;DHT22;43961;52.940;6.834;2023-02-18T18:00:07;9.80;99.90
57026;DHT22;43961;52.940;6.834;2023-02-18T18:02:33;9.80;99.90
57026;DHT22;43961;52.940;6.834;2023-02-18T18:04:58;9.80;99.90
57026;DHT22;43961;52.940;6.834;2023-02-18T18:07:24;9.80;99.90
57026;DHT22;43961;52.940;6.834;2023-02-18T18:09:50;9.80;99.90
57026;DHT22;43961;52.940;6.834;2023-02-18T18:12:16;9.70;99.90
57026;DHT22;43961;52.940;6.834;2023-02-18T18:14:41;9.70;99.90
57026;DHT22;43961;52.940;6.834;2023-02-18T18:17:11;9.70;99.90
57026;DHT22;43961;52.940;6.834;2023-02-18T18:19:37;9.70;99.90
57026;DHT22;43961;52.940;6.834;2023-02-18T18:22:04;9.70;99.90
57026;DHT22;43961;52.940;6.834;2023-02-18T18:24:30;9.60;99.90
57026;DHT22;43961;52.940;6.834;2023-02-18T18:26:57;9.60;99.90
57026;DHT22;43961;52.940;6.834;2023-02-18T18:29:22;9.60;99.90
57026;DHT22;43961;52.940;6.834;2023-02-18T18:31:48;9.60;99.90
57026;DHT22;43961;52.940;6.834;2023-02-18T18:34:15;9.50;99.90